createdAt,value
2022-10-04T00:03:19.385Z,2.42
2022-10-04T00:13:51.487Z,2.72
2022-10-04T00:24:22.489Z,3.08
2022-10-04T00:34:50.443Z,3.20
2022-10-04T00:45:32.396Z,4.68
2022-10-04T00:56:00.474Z,3.60
2022-10-04T01:06:22.979Z,3.55
2022-10-04T01:16:46.561Z,2.88
2022-10-04T01:27:36.344Z,3.25
2022-10-04T01:37:57.950Z,3.60
2022-10-04T01:48:25.180Z,2.88
2022-10-04T01:58:50.015Z,3.35
2022-10-04T02:09:16.027Z,2.92
2022-10-04T02:30:04.253Z,3.65
2022-10-04T02:40:31.739Z,3.90
2022-10-04T02:50:57.953Z,3.90
2022-10-04T03:01:27.562Z,3.05
2022-10-04T03:11:51.888Z,3.67
2022-10-04T03:22:13.454Z,2.75
2022-10-04T03:32:36.178Z,3.42
2022-10-04T03:42:59.107Z,3.80
2022-10-04T03:53:28.893Z,3.05
2022-10-04T04:03:58.627Z,4.30
2022-10-04T04:14:26.392Z,3.42
2022-10-04T04:24:49.667Z,3.80
2022-10-04T04:35:23.419Z,3.42
2022-10-04T04:46:02.902Z,3.80
2022-10-04T04:56:32.074Z,3.17
2022-10-04T05:07:05.144Z,3.40
2022-10-04T05:17:36.051Z,3.10
2022-10-04T05:27:57.769Z,3.20
2022-10-04T05:38:30.774Z,2.55
2022-10-04T05:48:57.237Z,2.22
2022-10-04T05:59:35.237Z,2.88
2022-10-04T06:10:08.399Z,2.83
2022-10-04T06:20:57.835Z,3.00
2022-10-04T06:31:55.322Z,2.60
2022-10-04T06:42:48.659Z,2.05
2022-10-04T06:53:22.307Z,2.75
2022-10-04T07:03:51.746Z,3.38
2022-10-04T07:14:16.623Z,2.78
2022-10-04T07:24:51.041Z,3.35
2022-10-04T07:35:32.835Z,4.45
2022-10-04T07:46:04.459Z,3.08
2022-10-04T07:56:32.458Z,3.58
2022-10-04T08:07:00.415Z,3.85
2022-10-04T08:17:42.906Z,3.00
2022-10-04T08:28:39.051Z,4.82
2022-10-04T08:39:01.278Z,4.65
2022-10-04T08:49:47.202Z,3.67
2022-10-04T09:00:20.324Z,3.20
2022-10-04T09:11:26.604Z,4.60
2022-10-04T09:22:10.623Z,3.63
2022-10-04T09:33:03.963Z,4.07
2022-10-04T09:43:57.352Z,2.47
2022-10-04T09:54:57.720Z,2.40
2022-10-04T10:05:45.956Z,3.10
2022-10-04T10:16:25.555Z,2.47
2022-10-04T10:27:03.599Z,2.75
2022-10-04T10:37:40.923Z,2.38
2022-10-04T10:48:13.496Z,2.47
2022-10-04T10:58:56.131Z,2.63
2022-10-04T11:09:30.713Z,3.20
2022-10-04T11:20:24.333Z,2.50
2022-10-04T11:31:23.909Z,3.97
2022-10-04T11:41:55.791Z,3.00
2022-10-04T11:52:44.033Z,3.28
2022-10-04T12:03:42.263Z,2.85
2022-10-04T12:14:14.355Z,3.08
2022-10-04T12:25:16.579Z,2.30
2022-10-04T12:36:03.301Z,2.40
2022-10-04T12:46:38.038Z,2.58
2022-10-04T13:07:38.109Z,2.33
2022-10-04T13:18:22.768Z,2.63
2022-10-04T13:28:53.846Z,2.10
2022-10-04T13:39:41.554Z,2.10
2022-10-04T13:50:27.959Z,2.03
2022-10-04T14:01:09.933Z,2.55
2022-10-04T14:12:08.846Z,2.28
2022-10-04T14:23:00.836Z,2.03
2022-10-04T14:33:54.695Z,2.10
2022-10-04T14:44:51.592Z,2.28
2022-10-04T14:55:34.522Z,2.88
2022-10-04T15:06:09.815Z,2.20
2022-10-04T15:16:44.109Z,2.03
2022-10-04T15:27:55.492Z,2.17
2022-10-04T15:38:24.302Z,2.20
2022-10-04T15:49:03.963Z,2.28
2022-10-04T15:59:38.699Z,2.67
2022-10-04T16:10:13.171Z,2.70
2022-10-04T16:20:57.611Z,2.80
2022-10-04T16:31:28.342Z,3.13
2022-10-04T16:41:59.728Z,3.42
2022-10-04T16:52:48.445Z,3.83
2022-10-04T17:03:23.216Z,3.42
2022-10-04T17:13:56.866Z,3.30
2022-10-04T17:24:26.738Z,3.67
2022-10-04T17:35:01.691Z,4.68
2022-10-04T17:46:02.079Z,4.80
2022-10-04T17:56:31.092Z,4.63
2022-10-04T18:06:57.033Z,4.60
2022-10-04T18:17:33.010Z,9.93
2022-10-04T18:28:04.659Z,5.80
2022-10-04T18:38:30.352Z,5.05
2022-10-04T18:48:58.056Z,4.40
2022-10-04T18:59:51.227Z,4.60
2022-10-04T19:10:23.036Z,4.97
2022-10-04T19:20:52.727Z,5.00
2022-10-04T19:31:28.382Z,4.78
2022-10-04T19:42:03.426Z,7.47
2022-10-04T19:52:32.823Z,5.55
2022-10-04T20:02:58.551Z,5.68
2022-10-04T20:13:27.729Z,7.23
2022-10-04T20:23:57.332Z,5.25
2022-10-04T20:34:36.880Z,6.57
2022-10-04T20:45:20.878Z,6.65
2022-10-04T20:55:44.285Z,6.13
2022-10-04T21:06:13.497Z,7.05
2022-10-04T21:16:59.919Z,7.18
2022-10-04T21:27:34.987Z,6.43
2022-10-04T21:38:00.210Z,5.93
2022-10-04T21:48:23.604Z,5.07
2022-10-04T21:58:45.170Z,5.28
2022-10-04T22:09:11.931Z,4.97
2022-10-04T22:19:35.605Z,5.47
2022-10-04T22:30:02.917Z,4.80
2022-10-04T22:40:27.581Z,4.70
2022-10-04T22:50:54.161Z,4.95
2022-10-04T23:01:21.957Z,4.60
2022-10-04T23:11:52.097Z,5.00
2022-10-04T23:22:21.418Z,4.28
2022-10-04T23:32:49.456Z,5.17
2022-10-04T23:43:18.497Z,4.93
2022-10-04T23:53:47.093Z,5.10
